Time;durP1;ratioP1;P1;durP2;ratioP2;P2;SDS_P1;SDS_P2;PMS_P1;PMS_P2;Temp;Humidity;BMP_temperature;BMP_pressure;BME280_temperature;BME280_humidity;BME280_pressure;Samples;Min_cycle;Max_cycle;Signal;HPM_P1;HPM_P2
2021/04/01 00:00:11;;;;;;;41.63;23.47;;;11.90;99.90;;;;;;4394216;32;20160;-69
2021/04/01 00:02:37;;;;;;;41.30;24.00;;;11.80;99.90;;;;;;4406642;32;20178;-69
2021/04/01 00:05:06;;;;;;;42.23;23.27;;;11.80;99.90;;;;;;4410250;32;20135;-69
2021/04/01 00:07:33;;;;;;;37.87;22.03;;;11.80;99.90;;;;;;4411499;32;20140;-69
2021/04/01 00:10:00;;;;;;;44.30;24.43;;;11.70;99.90;;;;;;4409388;32;20158;-69
2021/04/01 00:12:27;;;;;;;41.30;23.47;;;11.70;99.90;;;;;;4409522;32;20343;-69
2021/04/01 00:14:53;;;;;;;40.87;23.83;;;11.70;99.90;;;;;;4408580;32;20220;-69
2021/04/01 00:17:20;;;;;;;43.57;24.90;;;11.70;99.90;;;;;;4409166;32;20222;-70
2021/04/01 00:19:46;;;;;;;42.10;24.17;;;11.70;99.90;;;;;;4410993;32;20147;-70
2021/04/01 00:22:13;;;;;;;41.17;24.17;;;11.60;99.90;;;;;;4409636;32;20384;-69
2021/04/01 00:24:39;;;;;;;40.17;24.50;;;11.60;99.90;;;;;;4409418;32;20344;-69
2021/04/01 00:27:06;;;;;;;43.20;25.83;;;11.50;99.90;;;;;;4409641;32;20131;-70
2021/04/01 00:29:33;;;;;;;40.73;24.57;;;11.50;99.90;;;;;;4410648;32;20147;-71
2021/04/01 00:31:59;;;;;;;41.97;24.87;;;11.50;99.90;;;;;;4410853;32;20182;-69
2021/04/01 00:34:26;;;;;;;45.80;25.60;;;11.50;99.90;;;;;;4410746;32;20143;-69
2021/04/01 00:36:52;;;;;;;43.83;24.73;;;11.50;99.90;;;;;;4408215;32;20375;-70
2021/04/01 00:39:19;;;;;;;45.57;26.53;;;11.50;99.90;;;;;;4401709;32;20549;-69
2021/04/01 00:41:45;;;;;;;45.00;26.43;;;11.50;99.90;;;;;;4394083;32;20154;-69
2021/04/01 00:44:13;;;;;;;49.47;26.20;;;11.50;99.90;;;;;;4395540;32;20194;-69
2021/04/01 00:46:39;;;;;;;43.77;24.97;;;11.50;99.90;;;;;;4393599;32;20147;-69
2021/04/01 00:49:06;;;;;;;45.40;26.23;;;11.50;99.90;;;;;;4394170;32;20158;-70
2021/04/01 00:51:32;;;;;;;43.83;24.77;;;11.50;99.90;;;;;;4394130;32;20409;-70
2021/04/01 00:54:00;;;;;;;46.10;24.90;;;11.40;99.90;;;;;;4395252;32;20492;-69
2021/04/01 00:56:26;;;;;;;44.23;23.93;;;11.40;99.90;;;;;;4395406;32;20136;-69
2021/04/01 00:58:54;;;;;;;45.33;24.80;;;11.40;99.90;;;;;;4395441;32;20452;-69
2021/04/01 01:03:55;;;;;;;45.77;25.43;;;11.30;99.90;;;;;;4395220;32;20215;-69
2021/04/01 01:06:21;;;;;;;44.93;25.73;;;11.30;99.90;;;;;;4393519;32;20156;-69
2021/04/01 01:08:47;;;;;;;43.23;24.37;;;11.30;99.90;;;;;;4394982;32;20455;-69
2021/04/01 01:11:14;;;;;;;37.33;23.80;;;11.30;99.90;;;;;;4393917;32;20144;-69
2021/04/01 01:13:40;;;;;;;47.77;25.13;;;11.20;99.90;;;;;;4394001;32;20182;-69
2021/04/01 01:16:07;;;;;;;43.83;24.23;;;11.10;99.90;;;;;;4396835;32;20434;-69
2021/04/01 01:18:33;;;;;;;47.63;23.87;;;11.10;99.90;;;;;;4397013;32;20152;-68
2021/04/01 01:21:01;;;;;;;43.00;23.57;;;11.00;99.90;;;;;;4396942;32;20182;-70
2021/04/01 01:23:29;;;;;;;39.03;24.23;;;10.90;99.90;;;;;;4398348;32;20177;-69
2021/04/01 01:25:57;;;;;;;44.57;24.77;;;10.70;99.90;;;;;;4396896;32;20170;-70
2021/04/01 01:28:24;;;;;;;43.37;24.70;;;10.60;99.90;;;;;;4396408;32;20534;-69
2021/04/01 01:30:52;;;;;;;49.13;25.50;;;10.50;99.90;;;;;;4396832;32;20383;-69
2021/04/01 01:33:22;;;;;;;47.73;25.17;;;10.40;99.90;;;;;;4396102;32;20485;-69
2021/04/01 01:35:53;;;;;;;44.70;25.03;;;10.40;99.90;;;;;;4396701;32;20428;-69
2021/04/01 01:38:20;;;;;;;44.10;25.33;;;10.30;99.90;;;;;;4398157;32;20128;-70
2021/04/01 01:40:48;;;;;;;47.60;25.73;;;10.20;99.90;;;;;;4398385;32;20155;-70
2021/04/01 01:43:15;;;;;;;45.57;24.70;;;10.20;99.90;;;;;;4398370;32;20147;-70
2021/04/01 01:45:43;;;;;;;46.30;25.93;;;10.10;99.90;;;;;;4398126;32;20217;-70
2021/04/01 01:48:10;;;;;;;47.87;26.30;;;10.00;99.90;;;;;;4396539;32;20140;-69
2021/04/01 01:50:38;;;;;;;47.03;26.77;;;9.80;99.90;;;;;;4396578;32;20189;-69
2021/04/01 01:53:07;;;;;;;46.60;25.77;;;9.70;99.90;;;;;;4396417;32;20163;-69
2021/04/01 01:55:35;;;;;;;45.70;26.67;;;9.60;99.90;;;;;;4398447;32;20159;-69
2021/04/01 01:58:02;;;;;;;47.13;26.60;;;9.50;99.90;;;;;;4397868;32;20155;-69
2021/04/01 02:00:45;;;;;;;56.57;28.47;;;9.40;99.90;;;;;;4397813;32;20192;-71
2021/04/01 02:03:12;;;;;;;53.67;27.80;;;9.40;99.90;;;;;;4396420;32;20190;-69
2021/04/01 02:05:40;;;;;;;51.50;27.33;;;9.30;99.90;;;;;;4396952;32;20156;-69
2021/04/01 02:08:09;;;;;;;52.87;28.00;;;9.20;99.90;;;;;;4397674;32;20144;-68
2021/04/01 02:10:42;;;;;;;53.73;29.20;;;9.10;99.90;;;;;;4395734;32;20158;-69
2021/04/01 02:13:09;;;;;;;52.47;29.30;;;9.00;99.90;;;;;;4396168;32;20169;-69
2021/04/01 02:15:39;;;;;;;57.50;29.33;;;9.00;99.90;;;;;;4397908;32;20235;-69
2021/04/01 02:18:21;;;;;;;56.37;29.23;;;8.90;99.90;;;;;;4396852;32;20143;-69
2021/04/01 02:20:50;;;;;;;57.83;30.07;;;8.90;99.90;;;;;;4397625;32;20148;-69
2021/04/01 02:23:19;;;;;;;61.93;30.00;;;8.80;99.90;;;;;;4397478;32;20138;-69
2021/04/01 02:25:47;;;;;;;60.70;31.07;;;8.70;99.90;;;;;;4396025;32;20139;-68
2021/04/01 02:28:15;;;;;;;61.33;29.87;;;8.70;99.90;;;;;;4397009;32;20385;-68
2021/04/01 02:30:44;;;;;;;58.13;30.70;;;8.60;99.90;;;;;;4397435;32;20209;-69
2021/04/01 02:33:11;;;;;;;57.27;31.23;;;8.60;99.90;;;;;;4397265;32;20147;-69
2021/04/01 02:35:39;;;;;;;59.57;31.20;;;8.60;99.90;;;;;;4396150;32;20219;-69
2021/04/01 02:38:06;;;;;;;63.43;32.07;;;8.50;99.90;;;;;;4395895;32;20174;-69
2021/04/01 02:40:34;;;;;;;60.30;31.17;;;8.50;99.90;;;;;;4395902;32;20140;-69
2021/04/01 02:43:01;;;;;;;66.30;33.50;;;8.50;99.90;;;;;;4397276;32;20165;-68
2021/04/01 02:45:27;;;;;;;64.67;32.87;;;8.40;99.90;;;;;;4397261;32;20159;-69
2021/04/01 02:47:54;;;;;;;64.97;34.23;;;8.40;99.90;;;;;;4395782;32;20140;-70
2021/04/01 02:50:21;;;;;;;65.60;33.20;;;8.30;99.90;;;;;;4397224;32;20186;-69
2021/04/01 02:52:48;;;;;;;64.93;33.07;;;8.30;99.90;;;;;;4395621;32;20181;-69
2021/04/01 02:55:14;;;;;;;68.80;33.67;;;8.30;99.90;;;;;;4395709;32;20473;-69
2021/04/01 02:57:42;;;;;;;67.67;34.43;;;8.30;99.90;;;;;;4395534;32;20176;-69
2021/04/01 03:00:13;;;;;;;66.93;34.87;;;8.20;99.90;;;;;;4397004;32;20392;-69
2021/04/01 03:02:44;;;;;;;65.77;33.47;;;8.20;99.90;;;;;;4397015;32;20191;-69
2021/04/01 03:05:11;;;;;;;64.87;33.30;;;8.10;99.90;;;;;;4396060;32;20209;-68
2021/04/01 03:07:39;;;;;;;69.07;33.97;;;8.10;99.90;;;;;;4397236;32;20135;-69
2021/04/01 03:10:08;;;;;;;65.53;32.60;;;8.10;99.90;;;;;;4396859;32;20143;-69
2021/04/01 03:12:35;;;;;;;63.47;33.60;;;8.00;99.90;;;;;;4395356;32;20143;-69
2021/04/01 03:15:03;;;;;;;66.83;34.87;;;8.00;99.90;;;;;;4395409;32;20194;-70
2021/04/01 03:17:29;;;;;;;64.27;33.17;;;7.90;99.90;;;;;;4395330;32;20143;-69
2021/04/01 03:19:56;;;;;;;66.37;33.53;;;7.90;99.90;;;;;;4396722;32;20139;-69
2021/04/01 03:22:22;;;;;;;68.70;34.43;;;7.90;99.90;;;;;;4396301;32;20174;-70
2021/04/01 03:24:49;;;;;;;68.00;34.20;;;7.90;99.90;;;;;;4394674;32;20466;-69
2021/04/01 03:27:15;;;;;;;62.70;32.97;;;7.90;99.90;;;;;;4396612;32;20217;-68
2021/04/01 03:29:42;;;;;;;66.23;33.80;;;7.90;99.90;;;;;;4396579;32;20198;-69
2021/04/01 03:32:08;;;;;;;62.73;33.60;;;7.90;99.90;;;;;;4396599;32;20378;-68
2021/04/01 03:34:34;;;;;;;63.40;33.20;;;7.90;99.90;;;;;;4396450;32;20167;-68
2021/04/01 03:37:01;;;;;;;64.10;33.13;;;7.80;99.90;;;;;;4394262;32;20401;-69
2021/04/01 03:39:28;;;;;;;62.83;32.90;;;7.80;99.90;;;;;;4396496;32;20143;-70
2021/04/01 03:41:54;;;;;;;63.87;32.63;;;7.80;99.90;;;;;;4396414;32;20166;-69
2021/04/01 03:44:20;;;;;;;60.47;32.57;;;7.70;99.90;;;;;;4394752;32;20132;-69
2021/04/01 03:46:47;;;;;;;64.17;33.13;;;7.70;99.90;;;;;;4394820;32;20144;-69
2021/04/01 03:49:13;;;;;;;65.10;34.27;;;7.70;99.90;;;;;;4394870;32;20147;-69
2021/04/01 03:51:39;;;;;;;61.73;32.37;;;7.60;99.90;;;;;;4394799;32;20220;-70
2021/04/01 03:54:07;;;;;;;69.50;33.63;;;7.50;99.90;;;;;;4394715;32;20147;-69
2021/04/01 03:56:33;;;;;;;61.43;32.93;;;7.50;99.90;;;;;;4395022;32;20173;-69
2021/04/01 03:59:07;;;;;;;58.47;32.83;;;7.60;99.90;;;;;;4394668;32;20458;-69
2021/04/01 04:01:52;;;;;;;63.07;33.47;;;7.50;99.90;;;;;;4396405;32;20157;-69
2021/04/01 04:04:35;;;;;;;65.13;33.13;;;7.50;99.90;;;;;;4395291;32;20151;-68
2021/04/01 04:13:08;;;;;;;64.63;32.67;;;7.40;99.90;;;;;;4364316;32;20285;-70
2021/04/01 04:15:35;;;;;;;63.80;33.03;;;7.40;99.90;;;;;;4363171;32;20142;-69
2021/04/01 04:18:01;;;;;;;67.50;34.27;;;7.40;99.90;;;;;;4363980;32;20456;-69
2021/04/01 04:20:28;;;;;;;64.37;33.27;;;7.50;99.90;;;;;;4363717;32;20227;-70
2021/04/01 04:22:54;;;;;;;65.37;33.67;;;7.40;99.90;;;;;;4362199;32;20186;-69
2021/04/01 04:25:21;;;;;;;65.10;32.97;;;7.40;99.90;;;;;;4349769;33;20622;-69
2021/04/01 04:28:08;;;;;;;67.57;34.30;;;7.50;99.90;;;;;;4362063;32;20260;-69
2021/04/01 04:30:35;;;;;;;62.90;32.87;;;7.50;99.90;;;;;;4363100;32;20159;-69
2021/04/01 04:33:02;;;;;;;62.43;32.20;;;7.50;99.90;;;;;;4361904;32;20154;-69
2021/04/01 04:35:28;;;;;;;65.43;33.03;;;7.50;99.90;;;;;;4361839;32;20189;-70
2021/04/01 04:37:55;;;;;;;62.67;32.03;;;7.50;99.90;;;;;;4361549;32;20165;-69
2021/04/01 04:40:21;;;;;;;67.73;33.20;;;7.50;99.90;;;;;;4361775;32;20155;-69
2021/04/01 04:42:48;;;;;;;61.23;32.10;;;7.60;99.90;;;;;;4367630;32;20411;-69
2021/04/01 04:45:15;;;;;;;61.63;32.73;;;7.60;99.90;;;;;;4393952;32;20429;-69
2021/04/01 04:47:41;;;;;;;62.03;32.53;;;7.70;99.90;;;;;;4392735;32;20140;-69
2021/04/01 04:50:08;;;;;;;62.37;33.13;;;7.60;99.90;;;;;;4394348;32;20407;-69
2021/04/01 04:52:35;;;;;;;61.10;33.03;;;7.70;99.90;;;;;;4393969;32;20449;-69
2021/04/01 04:55:05;;;;;;;59.13;31.90;;;7.70;99.90;;;;;;4395296;32;20175;-69
2021/04/01 04:57:39;;;;;;;67.03;33.60;;;7.80;99.90;;;;;;4393130;32;20384;-70
2021/04/01 05:00:25;;;;;;;61.77;33.17;;;7.80;99.90;;;;;;4394022;32;20127;-70
2021/04/01 05:05:37;;;;;;;66.17;33.77;;;7.80;99.90;;;;;;4394579;32;20178;-69
2021/04/01 05:08:04;;;;;;;61.23;32.83;;;7.90;99.90;;;;;;4395253;32;20136;-70
2021/04/01 05:10:30;;;;;;;62.50;32.77;;;7.90;99.90;;;;;;4393791;32;20143;-69
2021/04/01 05:13:09;;;;;;;63.17;33.23;;;8.00;99.90;;;;;;4395059;32;20203;-69
2021/04/01 05:15:42;;;;;;;62.70;33.53;;;8.10;99.90;;;;;;4395574;32;20193;-69
2021/04/01 05:20:45;;;;;;;64.47;34.17;;;8.20;99.90;;;;;;4394451;32;20147;-70
2021/04/01 05:25:52;;;;;;;70.33;35.83;;;8.40;99.90;;;;;;4393970;32;20136;-70
2021/04/01 05:31:06;;;;;;;67.63;34.83;;;8.50;99.90;;;;;;4395480;32;20136;-70
2021/04/01 05:33:35;;;;;;;63.80;34.33;;;8.60;99.90;;;;;;4394970;32;20151;-68
2021/04/01 05:36:05;;;;;;;63.20;33.73;;;8.70;99.90;;;;;;4394275;32;20173;-69
2021/04/01 05:38:32;;;;;;;66.73;35.33;;;8.90;99.90;;;;;;4393990;32;20477;-70
2021/04/01 05:41:00;;;;;;;70.10;35.77;;;9.00;99.90;;;;;;4393928;32;20157;-70
2021/04/01 05:43:28;;;;;;;65.80;35.10;;;9.10;99.90;;;;;;4394163;32;20193;-70
2021/04/01 05:46:05;;;;;;;66.33;35.17;;;9.20;99.90;;;;;;4395141;32;20174;-69
2021/04/01 05:48:39;;;;;;;63.63;34.90;;;9.30;99.90;;;;;;4395411;32;20177;-69
2021/04/01 06:00:16;;;;;;;66.77;35.67;;;9.60;99.90;;;;;;4376828;32;20253;-69
2021/04/01 06:02:45;;;;;;;72.20;35.63;;;9.80;99.90;;;;;;4379043;32;20139;-69
2021/04/01 06:05:19;;;;;;;72.03;36.30;;;9.90;99.90;;;;;;4380201;32;20235;-70
2021/04/01 06:07:47;;;;;;;73.07;35.87;;;10.00;99.90;;;;;;4368498;32;20397;-69
2021/04/01 06:10:19;;;;;;;70.30;35.63;;;10.20;99.90;;;;;;4380825;32;20152;-69
2021/04/01 06:12:46;;;;;;;72.60;36.03;;;10.40;99.90;;;;;;4380343;32;20144;-69
2021/04/01 06:15:13;;;;;;;73.77;37.70;;;10.50;99.90;;;;;;4380061;32;20194;-69
2021/04/01 06:17:46;;;;;;;72.33;36.23;;;10.70;99.90;;;;;;4379304;32;20201;-70
2021/04/01 06:20:13;;;;;;;77.17;37.70;;;10.80;99.90;;;;;;4380695;32;20159;-68
2021/04/01 06:22:42;;;;;;;65.93;36.93;;;11.00;99.90;;;;;;4378357;32;20166;-68
2021/04/01 06:25:11;;;;;;;68.07;37.30;;;11.20;99.90;;;;;;4379967;32;20535;-69
2021/04/01 06:27:45;;;;;;;67.27;36.03;;;11.30;99.90;;;;;;4378305;32;20219;-70
2021/04/01 06:30:34;;;;;;;62.77;35.27;;;11.50;99.90;;;;;;4388166;32;20206;-69
2021/04/01 06:33:10;;;;;;;63.37;35.00;;;11.70;99.90;;;;;;4397141;32;20203;-69
2021/04/01 06:35:44;;;;;;;68.37;35.90;;;11.90;99.90;;;;;;4397144;32;20150;-68
2021/04/01 06:40:43;;;;;;;59.23;31.13;;;12.30;99.90;;;;;;4397236;32;20140;-68
2021/04/01 06:43:27;;;;;;;59.83;31.63;;;12.40;99.90;;;;;;4397263;32;20401;-70
2021/04/01 06:45:55;;;;;;;61.93;33.30;;;12.60;99.90;;;;;;4397430;32;20202;-68
2021/04/01 06:48:26;;;;;;;57.40;31.93;;;12.80;99.90;;;;;;4395520;32;20462;-69
2021/04/01 06:51:06;;;;;;;60.77;31.80;;;13.00;99.90;;;;;;4396273;32;20266;-68
2021/04/01 06:53:46;;;;;;;60.50;32.27;;;13.10;99.90;;;;;;4396921;32;20149;-69
2021/04/01 06:56:50;;;;;;;56.87;29.73;;;13.40;99.90;;;;;;4396230;32;20151;-69
2021/04/01 06:59:41;;;;;;;50.30;27.30;;;13.60;99.90;;;;;;4396948;32;20211;-69
2021/04/01 07:04:53;;;;;;;46.07;26.30;;;13.90;99.90;;;;;;4397019;32;20139;-66
2021/04/01 07:07:22;;;;;;;47.03;25.97;;;14.10;99.90;;;;;;4395976;32;20508;-65
2021/04/01 07:12:33;;;;;;;43.50;25.27;;;14.50;99.90;;;;;;4396637;32;20205;-67
2021/04/01 07:15:07;;;;;;;47.90;26.33;;;14.60;99.90;;;;;;4395733;32;20165;-66
2021/04/01 07:17:56;;;;;;;47.33;26.10;;;14.70;99.90;;;;;;4408127;32;20489;-66
2021/04/01 07:23:55;;;;;;;44.33;25.33;;;14.90;99.90;;;;;;4409634;32;20544;-67
2021/04/01 07:32:22;;;;;;;46.80;25.73;;;15.00;99.90;;;;;;4411288;32;20364;-66
2021/04/01 07:34:54;;;;;;;43.67;25.60;;;15.20;99.90;;;;;;4399929;32;20178;-67
2021/04/01 07:48:49;;;;;;;38.87;23.63;;;15.80;96.20;;;;;;4400806;32;20572;-68
2021/04/01 07:51:54;;;;;;;43.10;22.90;;;16.10;95.50;;;;;;4410958;32;20142;-68
2021/04/01 07:54:27;;;;;;;42.50;22.87;;;16.40;94.90;;;;;;4409063;32;20188;-67
2021/04/01 08:06:36;;;;;;;52.03;25.03;;;16.90;90.70;;;;;;4279791;33;20547;-67
2021/04/01 08:09:11;;;;;;;43.53;24.20;;;17.00;90.00;;;;;;4278769;33;20146;-67
2021/04/01 08:11:54;;;;;;;46.13;24.67;;;16.80;90.30;;;;;;4283781;33;20195;-68
2021/04/01 08:14:41;;;;;;;46.53;24.30;;;16.90;89.80;;;;;;4276560;33;20157;-68
2021/04/01 08:17:38;;;;;;;41.90;24.87;;;16.80;89.70;;;;;;4268785;33;20197;-67
2021/04/01 08:20:29;;;;;;;39.73;23.37;;;16.80;90.00;;;;;;4280941;33;20189;-67
2021/04/01 08:23:59;;;;;;;39.97;22.47;;;17.00;89.20;;;;;;4285393;33;20153;-69
2021/04/01 08:35:38;;;;;;;39.53;22.83;;;18.10;83.80;;;;;;4198609;34;20200;-69
2021/04/01 08:38:14;;;;;;;38.73;21.90;;;18.60;81.00;;;;;;4203701;34;20169;-68
2021/04/01 08:41:26;;;;;;;38.23;20.97;;;18.70;77.50;;;;;;4247411;33;20453;-68
2021/04/01 08:44:46;;;;;;;39.60;19.93;;;19.00;75.10;;;;;;4266605;33;20151;-68
2021/04/01 08:48:10;;;;;;;37.53;19.87;;;19.30;73.60;;;;;;4262800;33;20204;-68
2021/04/01 08:51:01;;;;;;;36.30;20.53;;;19.70;71.60;;;;;;4265004;33;20158;-69
2021/04/01 08:54:04;;;;;;;36.93;19.60;;;20.10;70.60;;;;;;4265393;33;20189;-68
2021/04/01 08:56:58;;;;;;;34.33;19.57;;;20.40;68.90;;;;;;4266124;33;20198;-68
2021/04/01 09:00:04;;;;;;;35.43;18.47;;;20.70;67.80;;;;;;4260038;33;20182;-72
2021/04/01 09:02:32;;;;;;;34.10;17.53;;;21.00;65.50;;;;;;4250620;33;20383;-69
2021/04/01 09:05:04;;;;;;;29.27;16.33;;;21.20;63.70;;;;;;4274456;33;20456;-69
2021/04/01 09:08:05;;;;;;;32.07;15.53;;;21.20;62.60;;;;;;4302656;33;20318;-68
2021/04/01 09:10:38;;;;;;;27.27;14.63;;;21.20;60.30;;;;;;4304789;33;20158;-68
2021/04/01 09:13:20;;;;;;;31.27;15.27;;;21.60;60.00;;;;;;4307308;33;20232;-68
2021/04/01 09:16:19;;;;;;;27.47;14.00;;;21.80;57.80;;;;;;4314964;33;20161;-69
2021/04/01 09:19:05;;;;;;;30.13;14.17;;;21.90;57.00;;;;;;4314111;33;20157;-68
2021/04/01 09:21:39;;;;;;;28.43;14.03;;;22.10;56.90;;;;;;4327554;33;20299;-69
2021/04/01 09:24:52;;;;;;;28.13;14.90;;;22.20;56.20;;;;;;4332871;33;20416;-71
2021/04/01 09:27:29;;;;;;;23.87;13.40;;;22.20;56.30;;;;;;4346001;33;20172;-69
2021/04/01 09:30:11;;;;;;;25.60;13.60;;;22.10;57.00;;;;;;4344072;33;20144;-69
2021/04/01 09:33:25;;;;;;;28.40;14.37;;;22.60;56.40;;;;;;4346101;33;20140;-70
2021/04/01 09:36:20;;;;;;;26.03;13.17;;;23.20;54.40;;;;;;4346611;33;20151;-69
2021/04/01 09:39:40;;;;;;;28.98;13.48;;;23.60;52.10;;;;;;4362661;32;20146;-69
2021/04/01 09:42:23;;;;;;;21.85;12.45;;;23.70;51.80;;;;;;4410225;32;20171;-67
2021/04/01 09:45:09;;;;;;;30.02;14.55;;;23.90;50.60;;;;;;4412173;32;20263;-68
2021/04/01 09:48:13;;;;;;;25.80;13.32;;;23.80;50.50;;;;;;4412761;32;20409;-68
2021/04/01 09:50:59;;;;;;;24.58;12.98;;;23.90;51.30;;;;;;4410960;32;20569;-69
2021/04/01 09:53:33;;;;;;;23.80;11.67;;;23.80;49.80;;;;;;4413330;32;20140;-68
2021/04/01 09:56:35;;;;;;;25.00;12.30;;;23.70;50.50;;;;;;4412328;32;20143;-67
2021/04/01 09:59:18;;;;;;;27.98;12.13;;;23.70;50.40;;;;;;4409705;32;20151;-68
2021/04/01 10:02:14;;;;;;;23.48;11.77;;;23.40;51.40;;;;;;4410524;32;20207;-69
2021/04/01 10:04:51;;;;;;;24.73;11.98;;;23.80;50.60;;;;;;4410692;32;20378;-68
2021/04/01 10:07:23;;;;;;;23.33;10.77;;;23.80;49.70;;;;;;4410799;32;20147;-70
2021/04/01 10:10:08;;;;;;;23.48;11.52;;;23.50;50.80;;;;;;4412470;32;20186;-70
2021/04/01 10:12:59;;;;;;;22.60;11.10;;;23.50;50.30;;;;;;4408573;32;20170;-68
2021/04/01 10:15:31;;;;;;;21.40;10.68;;;23.50;50.40;;;;;;4410448;32;20175;-68
2021/04/01 10:18:17;;;;;;;24.30;11.85;;;23.70;50.50;;;;;;4408428;32;20191;-69
2021/04/01 10:20:58;;;;;;;23.35;11.35;;;24.30;48.80;;;;;;4409379;32;20157;-69
2021/04/01 10:23:49;;;;;;;22.25;10.85;;;24.60;48.50;;;;;;4407645;32;20136;-68
2021/04/01 10:27:19;;;;;;;23.42;11.48;;;25.30;47.80;;;;;;4405647;32;20156;-68
2021/04/01 10:30:15;;;;;;;23.80;12.02;;;25.20;47.20;;;;;;4389228;32;20193;-68
2021/04/01 10:33:05;;;;;;;25.80;12.30;;;24.90;47.40;;;;;;4403216;32;20143;-68
2021/04/01 10:35:41;;;;;;;21.23;11.40;;;25.40;46.20;;;;;;4392584;32;20143;-68
2021/04/01 10:38:31;;;;;;;23.52;11.12;;;25.50;46.50;;;;;;4392197;32;20159;-69
2021/04/01 10:41:20;;;;;;;24.00;11.20;;;25.80;45.90;;;;;;4405825;32;20205;-69
2021/04/01 10:44:21;;;;;;;28.05;11.90;;;26.50;44.90;;;;;;4400953;32;20218;-68
2021/04/01 10:47:01;;;;;;;24.77;11.55;;;26.00;44.10;;;;;;4397611;32;20167;-69
2021/04/01 10:49:36;;;;;;;26.45;11.82;;;25.30;44.60;;;;;;4379263;32;20650;-69
2021/04/01 10:52:13;;;;;;;23.60;11.05;;;24.50;45.70;;;;;;4397608;32;20143;-69
2021/04/01 10:54:58;;;;;;;22.92;10.32;;;24.20;44.80;;;;;;4393396;32;20520;-69
2021/04/01 10:57:42;;;;;;;21.95;10.20;;;24.00;45.60;;;;;;4389986;32;20171;-70
2021/04/01 11:00:19;;;;;;;20.80;9.77;;;24.40;43.60;;;;;;4393233;32;20190;-70
2021/04/01 11:03:01;;;;;;;25.17;10.48;;;25.00;42.80;;;;;;4392867;32;20155;-69
2021/04/01 11:05:47;;;;;;;24.40;10.80;;;25.30;41.70;;;;;;4394772;32;20189;-71
2021/04/01 11:08:26;;;;;;;23.48;11.23;;;24.90;43.10;;;;;;4398325;32;20193;-69
2021/04/01 11:11:19;;;;;;;24.58;10.50;;;24.90;42.90;;;;;;4408083;32;20383;-67
2021/04/01 11:13:54;;;;;;;20.73;10.30;;;25.20;41.90;;;;;;4410204;32;20182;-69
2021/04/01 11:16:51;;;;;;;21.83;10.05;;;25.60;39.80;;;;;;4410935;32;20135;-70
2021/04/01 11:19:29;;;;;;;23.75;10.50;;;25.30;40.80;;;;;;4410671;32;20151;-69
2021/04/01 11:22:15;;;;;;;21.35;10.13;;;25.80;41.20;;;;;;4407902;32;20151;-69
2021/04/01 11:24:58;;;;;;;18.40;8.90;;;25.60;37.30;;;;;;4410502;32;20402;-69
2021/04/01 11:27:54;;;;;;;20.10;9.15;;;25.30;36.20;;;;;;4411472;32;20177;-70
2021/04/01 11:34:06;;;;;;;21.73;10.05;;;24.90;38.70;;;;;;4392879;32;20220;-70
2021/04/01 11:36:42;;;;;;;21.40;9.60;;;24.80;39.50;;;;;;4393345;32;20167;-71
2021/04/01 11:39:35;;;;;;;19.50;8.77;;;23.80;41.10;;;;;;4393086;32;20160;-67
2021/04/01 11:42:20;;;;;;;16.98;8.85;;;23.70;40.50;;;;;;4394204;32;20197;-70
2021/04/01 11:45:06;;;;;;;18.90;8.55;;;23.80;39.90;;;;;;4393007;32;20218;-71
2021/04/01 11:47:39;;;;;;;20.98;8.45;;;24.20;40.50;;;;;;4379809;32;20261;-71
2021/04/01 11:50:07;;;;;;;20.17;9.35;;;23.90;42.00;;;;;;4392485;32;20177;-71
2021/04/01 11:52:44;;;;;;;19.25;8.88;;;24.20;40.80;;;;;;4393982;32;20140;-70
2021/04/01 11:55:23;;;;;;;16.90;7.93;;;24.30;39.60;;;;;;4391993;32;20171;-71
2021/04/01 11:57:56;;;;;;;17.12;7.72;;;24.40;38.20;;;;;;4391698;32;20314;-71
2021/04/01 12:00:34;;;;;;;16.60;8.30;;;25.00;37.70;;;;;;4391602;32;20146;-71
2021/04/01 12:03:31;;;;;;;21.08;9.55;;;25.60;34.80;;;;;;4392482;32;20371;-70
2021/04/01 12:06:06;;;;;;;22.33;10.45;;;25.10;37.60;;;;;;4393383;32;20186;-70
2021/04/01 12:08:44;;;;;;;19.70;9.38;;;25.60;38.70;;;;;;4403682;32;20171;-71
2021/04/01 12:11:19;;;;;;;19.20;8.80;;;26.10;36.70;;;;;;4409076;32;20520;-71
2021/04/01 12:14:10;;;;;;;22.87;9.50;;;26.60;36.30;;;;;;4409291;32;20498;-69
2021/04/01 12:16:42;;;;;;;20.30;9.18;;;26.90;35.60;;;;;;4410522;32;20138;-70
2021/04/01 12:19:36;;;;;;;18.30;8.82;;;26.00;35.40;;;;;;4410569;32;20135;-70
2021/04/01 12:22:18;;;;;;;16.48;8.80;;;26.80;34.40;;;;;;4409179;32;20420;-70
2021/04/01 12:25:03;;;;;;;17.10;8.75;;;26.80;33.30;;;;;;4395244;32;20482;-70
2021/04/01 12:27:37;;;;;;;17.10;8.98;;;26.90;31.70;;;;;;4393937;32;20167;-71
2021/04/01 12:30:27;;;;;;;17.85;9.32;;;26.60;32.80;;;;;;4394390;32;20242;-72
2021/04/01 12:33:13;;;;;;;19.50;9.50;;;26.90;33.30;;;;;;4396076;32;20150;-72
2021/04/01 12:36:28;;;;;;;19.35;9.23;;;28.30;32.80;;;;;;4393485;32;20163;-71
2021/04/01 12:39:23;;;;;;;20.77;9.93;;;29.40;30.00;;;;;;4369686;32;20217;-72
2021/04/01 12:41:59;;;;;;;22.15;10.88;;;29.50;29.70;;;;;;4388118;32;20144;-70
2021/04/01 12:44:48;;;;;;;20.45;11.10;;;29.50;29.50;;;;;;4385567;32;20518;-72
2021/04/01 12:47:28;;;;;;;23.52;11.55;;;29.30;30.60;;;;;;4378273;32;20159;-71
2021/04/01 12:50:06;;;;;;;26.52;12.73;;;30.10;30.40;;;;;;4379427;32;20152;-71
2021/04/01 12:52:53;;;;;;;19.20;10.73;;;28.60;31.30;;;;;;4375905;32;20164;-71
2021/04/01 12:55:54;;;;;;;20.52;10.70;;;29.30;31.60;;;;;;4384383;32;20210;-71
2021/04/01 12:58:23;;;;;;;21.55;10.90;;;29.30;31.40;;;;;;4393632;32;20458;-71
2021/04/01 13:01:02;;;;;;;21.08;12.10;;;28.20;30.20;;;;;;4390942;32;20155;-71
2021/04/01 13:03:28;;;;;;;26.17;12.30;;;27.10;31.80;;;;;;4391356;32;20162;-71
2021/04/01 13:06:08;;;;;;;30.88;13.27;;;26.30;33.60;;;;;;4401021;32;20477;-72
2021/04/01 13:11:11;;;;;;;22.37;11.40;;;24.80;36.40;;;;;;4407729;32;20239;-70
2021/04/01 13:13:39;;;;;;;25.65;10.98;;;25.10;37.20;;;;;;4404028;32;20533;-70
2021/04/01 13:16:06;;;;;;;24.55;12.05;;;25.20;36.60;;;;;;4415256;32;20158;-71
2021/04/01 13:18:32;;;;;;;25.85;12.05;;;25.00;36.30;;;;;;4412413;32;20241;-70
2021/04/01 13:21:00;;;;;;;22.08;11.68;;;24.30;37.30;;;;;;4413462;32;20193;-70
2021/04/01 13:25:56;;;;;;;26.20;12.70;;;24.00;39.00;;;;;;4415098;32;20363;-71
2021/04/01 13:28:23;;;;;;;24.83;12.53;;;23.60;40.10;;;;;;4414003;32;20178;-71
2021/04/01 13:31:01;;;;;;;25.90;12.63;;;23.20;40.80;;;;;;4413869;32;20171;-70
2021/04/01 13:34:05;;;;;;;28.10;12.60;;;23.00;41.70;;;;;;4414088;32;20159;-71
2021/04/01 13:36:27;;;;;;;26.42;12.40;;;23.00;42.20;;;;;;4413848;32;20175;-72
2021/04/01 13:38:53;;;;;;;28.33;12.70;;;22.90;43.20;;;;;;4415130;32;20194;-71
2021/04/01 13:41:27;;;;;;;25.63;11.97;;;22.80;43.20;;;;;;4414949;32;20260;-70
2021/04/01 13:43:55;;;;;;;28.73;13.57;;;23.00;43.50;;;;;;4411507;32;20483;-70
2021/04/01 13:46:22;;;;;;;28.50;11.95;;;23.10;43.10;;;;;;4411433;32;20190;-71
2021/04/01 13:48:51;;;;;;;20.90;10.53;;;23.10;42.10;;;;;;4411108;32;20162;-71
2021/04/01 13:51:22;;;;;;;18.63;9.23;;;23.00;41.10;;;;;;4412672;32;20443;-69
2021/04/01 13:54:16;;;;;;;18.37;7.80;;;22.80;40.90;;;;;;4414975;32;20447;-75
2021/04/01 13:56:57;;;;;;;14.23;7.03;;;22.50;40.20;;;;;;4412702;32;20186;-71
2021/04/01 14:10:19;;;;;;;17.90;9.50;;;21.50;40.10;;;;;;4414684;32;20207;-72
2021/04/01 14:12:52;;;;;;;20.07;9.30;;;21.20;44.00;;;;;;4413405;32;20234;-72
2021/04/01 14:15:19;;;;;;;15.57;8.53;;;20.70;50.00;;;;;;4413404;32;20182;-72
2021/04/01 14:17:46;;;;;;;18.10;9.47;;;20.30;49.30;;;;;;4414276;32;20155;-71
2021/04/01 14:20:15;;;;;;;17.63;9.40;;;20.20;48.30;;;;;;4412107;32;20420;-73
2021/04/01 14:22:46;;;;;;;19.47;9.90;;;20.20;48.30;;;;;;4407555;32;20190;-71
2021/04/01 14:25:23;;;;;;;17.77;9.00;;;20.60;46.40;;;;;;4408479;32;20218;-73
2021/04/01 14:27:52;;;;;;;17.97;9.60;;;20.60;46.10;;;;;;4410680;32;20196;-75
2021/04/01 14:30:23;;;;;;;17.93;9.23;;;20.40;46.50;;;;;;4409751;32;20170;-73
2021/04/01 14:32:50;;;;;;;23.53;10.60;;;20.40;47.30;;;;;;4409122;32;20526;-72
2021/04/01 14:35:20;;;;;;;27.40;12.60;;;20.20;48.20;;;;;;4410974;32;20209;-72
2021/04/01 14:37:48;;;;;;;28.90;13.80;;;19.90;51.80;;;;;;4410751;32;20152;-70
2021/04/01 14:40:20;;;;;;;33.90;14.60;;;19.60;53.80;;;;;;4411469;32;20159;-71
2021/04/01 14:42:49;;;;;;;31.10;14.30;;;19.00;56.10;;;;;;4411480;32;20159;-73
2021/04/01 14:45:19;;;;;;;31.50;14.10;;;19.10;56.80;;;;;;4407888;32;20198;-73
2021/04/01 14:47:46;;;;;;;32.30;13.90;;;19.60;56.30;;;;;;4411586;32;20159;-71